Time;durP1;ratioP1;P1;durP2;ratioP2;P2;SDS_P1;SDS_P2;PMS_P1;PMS_P2;Temp;Humidity;BMP_temperature;BMP_pressure;BME280_temperature;BME280_humidity;BME280_pressure;Samples;Min_cycle;Max_cycle;Signal;HPM_P1;HPM_P2
2021/06/26 00:01:59;;;;;;;3.70;2.50;;;16.10;99.90;;;15.81;100.00;101393.53;4137688;28;20041;-68
2021/06/26 00:04:00;;;;;;;5.30;2.63;;;16.10;99.90;;;15.76;100.00;101391.41;4138575;28;20500;-68
2021/06/26 00:06:00;;;;;;;6.05;3.00;;;16.20;99.90;;;15.71;100.00;101391.09;4138842;28;20096;-68
2021/06/26 00:08:01;;;;;;;9.13;3.38;;;16.20;99.90;;;15.72;100.00;101383.94;4138882;28;20027;-68
2021/06/26 00:10:05;;;;;;;5.80;2.50;;;16.10;99.90;;;15.74;100.00;101392.59;4138734;28;20026;-68
2021/06/26 00:12:07;;;;;;;8.15;2.63;;;16.10;99.90;;;15.73;100.00;101383.78;4138675;28;20054;-68
2021/06/26 00:14:08;;;;;;;5.38;2.70;;;16.10;99.90;;;15.73;100.00;101377.63;4137771;28;20066;-68
2021/06/26 00:16:09;;;;;;;6.47;2.63;;;16.10;99.90;;;15.72;100.00;101374.16;4153979;28;20551;-68
2021/06/26 00:18:11;;;;;;;9.80;3.80;;;16.10;99.90;;;15.65;100.00;101383.00;4137661;28;20037;-68
2021/06/26 00:20:12;;;;;;;6.00;3.03;;;16.10;99.90;;;15.65;100.00;101380.34;4138298;28;20033;-68
2021/06/26 00:22:13;;;;;;;6.93;2.85;;;16.20;99.90;;;15.73;100.00;101378.47;4137707;28;20058;-68
2021/06/26 00:24:14;;;;;;;8.93;3.30;;;16.10;99.90;;;15.71;100.00;101358.38;4138707;28;20105;-67
2021/06/26 00:26:16;;;;;;;10.30;2.95;;;16.10;99.90;;;15.69;100.00;101368.34;4138595;28;20112;-68
2021/06/26 00:28:17;;;;;;;7.75;2.80;;;16.20;99.90;;;15.68;100.00;101366.69;4137361;28;20029;-68
2021/06/26 00:30:20;;;;;;;6.55;3.35;;;16.10;99.90;;;15.67;100.00;101362.38;4153740;28;20030;-68
2021/06/26 00:32:21;;;;;;;5.07;3.42;;;16.10;99.90;;;15.67;100.00;101365.03;4153679;28;20069;-68
2021/06/26 00:34:22;;;;;;;5.70;2.60;;;16.10;99.90;;;15.66;100.00;101364.19;4138174;28;20097;-68
2021/06/26 00:36:22;;;;;;;5.95;2.63;;;16.10;99.90;;;15.71;100.00;101363.69;4138351;28;20109;-68
2021/06/26 00:38:23;;;;;;;6.93;2.85;;;16.00;99.90;;;15.73;100.00;101364.34;4138601;28;20057;-68
2021/06/26 00:40:24;;;;;;;6.65;2.40;;;16.10;99.90;;;15.66;100.00;101363.38;4138292;28;20022;-68
2021/06/26 00:42:30;;;;;;;7.72;2.60;;;16.10;99.90;;;15.74;100.00;101360.69;4137010;28;20518;-68
2021/06/26 00:44:31;;;;;;;6.78;2.75;;;16.10;99.90;;;15.68;100.00;101356.06;4138295;28;20045;-68
2021/06/26 00:46:32;;;;;;;5.38;2.30;;;16.10;99.90;;;15.74;100.00;101355.38;4138267;28;20485;-68
2021/06/26 00:48:33;;;;;;;4.97;2.83;;;16.10;99.90;;;15.76;100.00;101362.16;4138240;28;20038;-68
2021/06/26 00:50:34;;;;;;;3.40;2.55;;;16.10;99.90;;;15.74;100.00;101350.03;4137943;28;20034;-68
2021/06/26 00:52:35;;;;;;;5.10;3.15;;;16.10;99.90;;;15.71;100.00;101361.03;4136788;28;20033;-68
2021/06/26 00:54:35;;;;;;;4.93;2.88;;;16.10;99.90;;;15.73;100.00;101359.00;4138318;28;20034;-68
2021/06/26 00:56:36;;;;;;;6.88;2.47;;;16.10;99.90;;;15.74;100.00;101348.19;4137095;28;20076;-68
2021/06/26 00:58:38;;;;;;;5.28;2.80;;;16.10;99.90;;;15.72;100.00;101349.38;4136984;28;20037;-68
2021/06/26 01:00:39;;;;;;;6.43;2.33;;;16.10;99.90;;;15.76;100.00;101346.19;4119740;28;20023;-68
2021/06/26 01:02:41;;;;;;;11.32;3.22;;;16.10;99.90;;;15.59;100.00;101341.16;4136890;28;20030;-68
2021/06/26 01:04:42;;;;;;;6.22;2.63;;;16.10;99.90;;;15.61;100.00;101336.47;4136669;28;20023;-68
2021/06/26 01:06:42;;;;;;;7.18;2.72;;;16.00;99.90;;;15.64;100.00;101341.44;4136766;28;20089;-68
2021/06/26 01:08:44;;;;;;;6.32;2.40;;;16.00;99.90;;;15.72;100.00;101334.25;4136704;28;20018;-68
2021/06/26 01:10:45;;;;;;;7.47;2.67;;;16.10;99.90;;;15.75;100.00;101335.72;4136948;28;20026;-68
2021/06/26 01:12:46;;;;;;;4.88;2.97;;;16.10;99.90;;;15.67;100.00;101328.63;4138112;28;20026;-68
2021/06/26 01:14:50;;;;;;;3.83;2.65;;;16.00;99.90;;;15.64;100.00;101321.00;4136779;28;20081;-68
2021/06/26 01:16:51;;;;;;;7.30;2.63;;;16.10;99.90;;;15.58;100.00;101329.66;4152775;28;20026;-68
2021/06/26 01:18:52;;;;;;;6.65;2.55;;;16.10;99.90;;;15.62;100.00;101328.31;4137603;28;20034;-68
2021/06/26 01:20:53;;;;;;;6.63;2.25;;;16.00;99.90;;;15.58;100.00;101335.00;4137981;28;20398;-68
2021/06/26 01:22:57;;;;;;;6.18;3.10;;;16.00;99.90;;;15.61;100.00;101329.31;4137892;28;20379;-68
2021/06/26 01:24:58;;;;;;;8.80;2.38;;;16.00;99.90;;;15.63;100.00;101323.81;4137552;28;20422;-68
2021/06/26 01:27:00;;;;;;;9.40;2.67;;;16.00;99.90;;;15.64;100.00;101322.81;4137771;28;20042;-68
2021/06/26 01:29:03;;;;;;;6.35;3.03;;;16.00;99.90;;;15.65;100.00;101317.31;4136568;28;20030;-68
2021/06/26 01:31:04;;;;;;;5.50;2.15;;;16.10;99.90;;;15.70;100.00;101327.44;4136633;28;20023;-68
2021/06/26 01:33:05;;;;;;;7.00;2.78;;;16.10;99.90;;;15.76;100.00;101322.25;4137462;28;20030;-68
2021/06/26 01:35:08;;;;;;;8.23;2.47;;;16.10;99.90;;;15.72;100.00;101320.94;4137361;28;20113;-68
2021/06/26 01:37:10;;;;;;;4.13;2.30;;;16.10;99.90;;;15.61;100.00;101321.34;4136545;28;20110;-68
2021/06/26 01:39:11;;;;;;;6.32;1.85;;;16.00;99.90;;;15.63;100.00;101329.13;4152669;28;20433;-68
2021/06/26 01:41:12;;;;;;;11.38;2.92;;;16.10;99.90;;;15.65;100.00;101316.50;4137340;28;20058;-68
2021/06/26 01:43:13;;;;;;;4.78;2.72;;;16.10;99.90;;;15.72;100.00;101320.09;4137591;28;20048;-68
2021/06/26 01:45:16;;;;;;;7.22;2.30;;;16.00;99.90;;;15.68;100.00;101310.84;4137498;28;20022;-68
2021/06/26 01:47:17;;;;;;;5.43;2.53;;;16.10;99.90;;;15.64;100.00;101322.81;4136299;28;20085;-68
2021/06/26 01:49:18;;;;;;;9.63;3.00;;;16.00;99.90;;;15.66;100.00;101312.81;4137012;28;20104;-68
2021/06/26 01:51:19;;;;;;;6.90;2.90;;;16.00;99.90;;;15.70;100.00;101319.47;4136422;28;20033;-68
2021/06/26 01:53:20;;;;;;;7.82;2.92;;;16.10;99.90;;;15.66;100.00;101313.66;4137468;28;20105;-68
2021/06/26 01:55:22;;;;;;;6.38;3.53;;;16.10;99.90;;;15.69;100.00;101308.00;4136090;28;20030;-68
2021/06/26 01:57:23;;;;;;;10.45;3.90;;;16.00;99.90;;;15.65;100.00;101308.53;4152211;28;20030;-68
2021/06/26 01:59:24;;;;;;;10.65;3.47;;;16.00;99.90;;;15.62;100.00;101309.69;4136263;28;20026;-68
2021/06/26 02:01:25;;;;;;;9.20;3.60;;;16.10;99.90;;;15.69;100.00;101310.66;4137236;28;20483;-68
2021/06/26 02:03:26;;;;;;;10.13;3.20;;;16.00;99.90;;;15.64;100.00;101302.38;4137375;28;20027;-68
2021/06/26 02:05:27;;;;;;;11.18;3.97;;;16.00;99.90;;;15.52;100.00;101287.00;4136724;28;20041;-68
2021/06/26 02:07:28;;;;;;;12.50;2.95;;;16.00;99.90;;;15.59;100.00;101294.06;4137080;28;20514;-67
2021/06/26 02:09:29;;;;;;;9.57;2.92;;;16.00;99.90;;;15.61;100.00;101299.25;4136947;28;20023;-68
2021/06/26 02:11:30;;;;;;;7.22;2.85;;;16.00;99.90;;;15.59;100.00;101304.72;4137021;28;20105;-68
2021/06/26 02:13:31;;;;;;;16.08;3.53;;;16.00;99.90;;;15.57;100.00;101301.41;4136972;28;20113;-68
2021/06/26 02:15:32;;;;;;;10.35;3.45;;;16.00;99.90;;;15.53;100.00;101296.63;4135777;28;20089;-68
2021/06/26 02:17:33;;;;;;;6.32;2.72;;;16.00;99.90;;;15.56;100.00;101283.00;4135807;28;20062;-68
2021/06/26 02:19:34;;;;;;;15.98;3.80;;;16.00;99.90;;;15.62;100.00;101298.25;4135494;28;20085;-68
2021/06/26 02:21:35;;;;;;;6.50;3.03;;;16.00;99.90;;;15.63;100.00;101298.06;4136879;28;20038;-68
2021/06/26 02:23:39;;;;;;;7.25;2.70;;;15.90;99.90;;;15.69;100.00;101293.84;4136890;28;20061;-68
2021/06/26 02:25:40;;;;;;;5.05;2.63;;;16.00;99.90;;;15.70;100.00;101301.69;4136811;28;20041;-67
2021/06/26 02:27:41;;;;;;;9.68;3.35;;;16.00;99.90;;;15.69;100.00;101288.53;4136852;28;20414;-68
2021/06/26 02:29:42;;;;;;;5.60;2.60;;;16.00;99.90;;;15.69;100.00;101288.53;4136460;28;20042;-68
2021/06/26 02:31:44;;;;;;;7.45;3.38;;;16.00;99.90;;;15.68;100.00;101287.72;4136817;28;20030;-68
2021/06/26 02:33:45;;;;;;;9.05;3.30;;;16.10;99.90;;;15.61;100.00;101289.44;4135285;28;20513;-68
2021/06/26 02:35:45;;;;;;;8.13;3.55;;;16.00;99.90;;;15.58;100.00;101288.94;4136636;28;20033;-68
2021/06/26 02:37:47;;;;;;;12.13;3.22;;;16.00;99.90;;;15.62;100.00;101299.03;4151533;28;20026;-68
2021/06/26 02:39:48;;;;;;;6.45;2.67;;;16.00;99.90;;;15.64;100.00;101297.06;4136560;28;20498;-68
2021/06/26 02:41:49;;;;;;;6.68;2.85;;;16.00;99.90;;;15.61;100.00;101292.09;4136539;28;20065;-68
2021/06/26 02:43:50;;;;;;;10.35;2.97;;;16.00;99.90;;;15.61;100.00;101283.28;4119079;28;20402;-68
2021/06/26 02:45:51;;;;;;;4.38;3.08;;;16.00;99.90;;;15.64;100.00;101289.09;4119062;28;20510;-68
2021/06/26 02:47:52;;;;;;;8.40;2.88;;;16.00;99.90;;;15.66;100.00;101292.38;4151513;28;21168;-68
2021/06/26 02:49:53;;;;;;;7.93;2.88;;;16.00;99.90;;;15.65;100.00;101281.94;4135018;28;20026;-68
2021/06/26 02:51:53;;;;;;;11.10;3.38;;;16.00;99.90;;;15.70;100.00;101298.19;4136425;28;20025;-68
2021/06/26 02:53:54;;;;;;;8.63;3.20;;;16.00;99.90;;;15.61;100.00;101291.25;4136314;28;20038;-68
2021/06/26 02:55:55;;;;;;;9.63;3.60;;;16.00;99.90;;;15.65;100.00;101282.75;4136330;28;20026;-68
2021/06/26 02:57:57;;;;;;;9.43;2.75;;;16.10;99.90;;;15.72;100.00;101289.03;4135184;28;20103;-68
2021/06/26 02:59:58;;;;;;;11.68;3.47;;;16.10;99.90;;;15.79;100.00;101275.84;4136352;28;20509;-68
2021/06/26 03:01:59;;;;;;;4.75;2.78;;;16.10;99.90;;;15.85;100.00;101278.63;4118912;28;20073;-68
2021/06/26 03:03:59;;;;;;;6.45;3.20;;;16.10;99.90;;;15.78;100.00;101271.53;4135787;28;20030;-68
2021/06/26 03:06:01;;;;;;;8.30;3.53;;;16.10;99.90;;;15.75;100.00;101271.88;4134997;28;20034;-68
2021/06/26 03:08:02;;;;;;;5.00;2.40;;;16.20;99.90;;;15.78;100.00;101282.16;4136192;28;20026;-68
2021/06/26 03:10:04;;;;;;;3.53;2.70;;;16.20;99.90;;;15.78;100.00;101266.22;4136014;28;20029;-68
2021/06/26 03:12:05;;;;;;;4.95;2.75;;;16.20;99.90;;;15.82;100.00;101273.66;4134680;28;20114;-67
2021/06/26 03:14:06;;;;;;;3.80;2.13;;;16.20;99.90;;;15.78;100.00;101271.53;4136099;28;20022;-68
2021/06/26 03:16:07;;;;;;;4.28;2.65;;;16.20;99.90;;;15.78;100.00;101263.53;4134797;28;20030;-68
2021/06/26 03:18:08;;;;;;;7.00;2.80;;;16.20;99.90;;;15.80;100.00;101273.00;4134871;28;20030;-68
2021/06/26 03:20:10;;;;;;;4.30;1.95;;;16.20;99.90;;;15.79;100.00;101273.19;4134447;28;20026;-68
2021/06/26 03:22:11;;;;;;;4.80;2.42;;;16.20;99.90;;;15.81;100.00;101271.19;4150759;28;20037;-68
2021/06/26 03:24:12;;;;;;;6.38;2.97;;;16.20;99.90;;;15.81;100.00;101260.53;4135886;28;20394;-68
2021/06/26 03:26:13;;;;;;;6.70;3.00;;;16.20;99.90;;;15.84;100.00;101269.00;4134592;28;20093;-68
2021/06/26 03:28:14;;;;;;;4.38;2.67;;;16.20;99.90;;;15.77;100.00;101256.59;4150784;28;20398;-68
2021/06/26 03:30:16;;;;;;;7.00;3.00;;;16.20;99.90;;;15.74;100.00;101256.94;4134847;28;20069;-67
2021/06/26 03:32:17;;;;;;;3.88;2.53;;;16.20;99.90;;;15.76;100.00;101263.75;4135971;28;20030;-68
2021/06/26 03:34:18;;;;;;;3.90;2.53;;;16.20;99.90;;;15.76;100.00;101257.59;4135579;28;20023;-68
2021/06/26 03:36:19;;;;;;;5.78;3.00;;;16.20;99.90;;;15.77;100.00;101254.72;4135760;28;20516;-67
2021/06/26 03:38:20;;;;;;;5.70;2.53;;;16.20;99.90;;;15.83;100.00;101255.88;4134675;28;20118;-68
2021/06/26 03:40:21;;;;;;;3.75;2.42;;;16.20;99.90;;;15.84;100.00;101249.53;4135694;28;20034;-68
2021/06/26 03:42:22;;;;;;;6.63;2.63;;;16.20;99.90;;;15.84;100.00;101244.22;4135739;28;20034;-67
2021/06/26 03:44:23;;;;;;;2.60;2.13;;;16.20;99.90;;;15.85;100.00;101248.53;4135712;28;20030;-68
2021/06/26 03:46:25;;;;;;;6.50;2.63;;;16.20;99.90;;;15.81;100.00;101240.09;4135824;28;20030;-68
2021/06/26 03:48:26;;;;;;;4.22;2.28;;;16.20;99.90;;;15.81;100.00;101233.94;4135829;28;20076;-67
2021/06/26 03:50:27;;;;;;;7.65;2.58;;;16.20;99.90;;;15.88;100.00;101242.88;4135443;28;20367;-68
2021/06/26 03:52:28;;;;;;;6.15;2.78;;;16.30;99.90;;;15.85;100.00;101236.06;4135676;28;20068;-68
2021/06/26 03:54:29;;;;;;;4.13;2.55;;;16.30;99.90;;;15.80;100.00;101221.66;4135824;28;20085;-68
2021/06/26 03:56:30;;;;;;;5.78;2.78;;;16.30;99.90;;;15.75;100.00;101224.00;4135845;28;20062;-68
2021/06/26 03:58:31;;;;;;;4.80;2.38;;;16.30;99.90;;;15.86;100.00;101232.38;4134603;28;20506;-68
2021/06/26 04:00:32;;;;;;;5.18;2.45;;;16.30;99.90;;;15.89;100.00;101236.53;4134123;28;20035;-68
2021/06/26 04:02:33;;;;;;;6.75;3.47;;;16.30;99.90;;;15.85;100.00;101243.22;4118321;28;20019;-68
2021/06/26 04:04:37;;;;;;;4.40;2.58;;;16.30;99.90;;;15.83;100.00;101245.25;4135477;28;20557;-68
2021/06/26 04:06:38;;;;;;;6.20;3.40;;;16.30;99.90;;;15.75;100.00;101245.28;4135591;28;20037;-67
2021/06/26 04:08:40;;;;;;;5.72;2.95;;;16.30;99.90;;;15.78;100.00;101244.94;4134399;28;20030;-68
2021/06/26 04:10:41;;;;;;;6.10;3.20;;;16.30;99.90;;;15.78;100.00;101248.41;4150575;28;20065;-68
2021/06/26 04:12:42;;;;;;;6.15;3.45;;;16.20;99.90;;;15.74;100.00;101251.63;4134386;28;20065;-68
2021/06/26 04:14:43;;;;;;;4.13;3.00;;;16.20;99.90;;;15.82;100.00;101256.88;4134391;28;20018;-67
2021/06/26 04:16:44;;;;;;;7.97;3.50;;;16.20;99.90;;;15.75;100.00;101246.13;4135443;28;20030;-68
2021/06/26 04:18:45;;;;;;;11.50;3.22;;;16.30;99.90;;;15.70;100.00;101239.66;4134193;28;20027;-67
2021/06/26 04:20:46;;;;;;;6.90;3.58;;;16.20;99.90;;;15.74;100.00;101244.44;4150655;28;20069;-68
2021/06/26 04:22:47;;;;;;;5.45;3.35;;;16.20;99.90;;;15.76;100.00;101241.63;4135598;28;20031;-67
2021/06/26 04:24:48;;;;;;;9.13;3.50;;;16.20;99.90;;;15.78;100.00;101237.78;4134258;28;20105;-68
2021/06/26 04:26:49;;;;;;;6.80;3.88;;;16.20;99.90;;;15.75;100.00;101229.31;4135500;28;20042;-68
2021/06/26 04:28:51;;;;;;;7.43;3.63;;;16.20;99.90;;;15.63;100.00;101220.94;4134200;28;20117;-67
2021/06/26 04:30:52;;;;;;;7.07;4.03;;;16.20;99.90;;;15.77;100.00;101237.97;4134317;28;20031;-67
2021/06/26 04:32:52;;;;;;;12.38;4.43;;;16.20;99.90;;;15.76;100.00;101233.66;4135376;28;20064;-67
2021/06/26 04:34:53;;;;;;;10.15;4.25;;;16.20;99.90;;;15.76;100.00;101225.66;4136125;28;20041;-68
2021/06/26 04:36:54;;;;;;;5.55;3.80;;;16.20;99.90;;;15.65;100.00;101223.44;4138552;28;20094;-68
2021/06/26 04:38:55;;;;;;;5.47;3.65;;;16.20;99.90;;;15.65;100.00;101228.75;4138579;28;20037;-68
2021/06/26 04:40:56;;;;;;;7.20;3.88;;;16.20;99.90;;;15.71;100.00;101223.53;4138269;28;20058;-68
2021/06/26 04:42:57;;;;;;;9.57;4.53;;;16.20;99.90;;;15.72;100.00;101232.34;4137017;28;20030;-68
2021/06/26 04:44:58;;;;;;;7.18;4.38;;;16.30;99.90;;;15.70;100.00;101226.38;4138488;28;20034;-67
2021/06/26 04:46:59;;;;;;;8.48;4.60;;;16.30;99.90;;;15.75;100.00;101231.97;4138389;28;20027;-68
2021/06/26 04:49:00;;;;;;;9.93;4.70;;;16.30;99.90;;;15.70;100.00;101226.38;4138189;28;20031;-68
2021/06/26 04:51:01;;;;;;;8.40;4.80;;;16.30;99.90;;;15.65;100.00;101232.22;4137024;28;20033;-68
2021/06/26 04:53:02;;;;;;;10.98;4.60;;;16.30;99.90;;;15.67;100.00;101232.03;4137320;28;20035;-67
2021/06/26 04:55:04;;;;;;;10.82;4.80;;;16.30;99.90;;;15.66;100.00;101222.41;4136969;28;20030;-68
2021/06/26 04:57:05;;;;;;;13.05;4.57;;;16.30;99.90;;;15.73;100.00;101234.00;4153183;28;20030;-68
2021/06/26 04:59:06;;;;;;;12.82;4.90;;;16.30;99.90;;;15.72;100.00;101245.63;4138090;28;20043;-68
2021/06/26 05:01:07;;;;;;;8.93;4.78;;;16.30;99.90;;;15.70;100.00;101231.69;4138270;28;20030;-67
2021/06/26 05:03:08;;;;;;;9.98;5.25;;;16.30;99.90;;;15.69;100.00;101238.84;4136932;28;20026;-68
2021/06/26 05:05:09;;;;;;;10.25;5.15;;;16.30;99.90;;;15.76;100.00;101244.28;4137779;28;20038;-68
2021/06/26 05:07:10;;;;;;;17.00;5.85;;;16.30;99.90;;;15.78;100.00;101239.59;4136522;28;20481;-68
2021/06/26 05:09:12;;;;;;;17.95;6.38;;;16.30;99.90;;;15.88;100.00;101237.53;4153155;28;20038;-67
2021/06/26 05:11:13;;;;;;;6.82;4.22;;;16.40;99.90;;;15.91;100.00;101231.88;4138072;28;20058;-68
2021/06/26 05:13:14;;;;;;;11.40;5.18;;;16.40;99.90;;;15.96;100.00;101238.31;4138024;28;20076;-68
2021/06/26 05:15:15;;;;;;;10.98;4.70;;;16.50;99.90;;;15.94;100.00;101229.69;4137797;28;20030;-67
2021/06/26 05:17:16;;;;;;;9.60;5.03;;;16.50;99.90;;;15.84;100.00;101239.72;4136720;28;20026;-68
2021/06/26 05:19:17;;;;;;;10.77;5.53;;;16.50;99.90;;;15.79;100.00;101225.31;4152613;28;20406;-68
2021/06/26 05:21:19;;;;;;;7.25;4.35;;;16.40;99.90;;;15.96;100.00;101232.16;4136636;28;20530;-67
2021/06/26 05:23:20;;;;;;;8.35;4.75;;;16.50;99.90;;;16.04;100.00;101240.06;4136552;28;20022;-67
2021/06/26 05:25:21;;;;;;;9.65;4.65;;;16.50;99.90;;;16.07;100.00;101238.91;4136515;28;20045;-67
2021/06/26 05:27:22;;;;;;;9.25;5.25;;;16.60;99.90;;;15.96;100.00;101240.97;4137859;28;20070;-68
2021/06/26 05:29:23;;;;;;;10.13;5.03;;;16.60;99.90;;;15.98;100.00;101244.25;4136518;28;20026;-67
2021/06/26 05:31:24;;;;;;;8.10;4.68;;;16.60;99.90;;;16.07;100.00;101238.91;4137723;28;20015;-67
2021/06/26 05:33:24;;;;;;;6.25;4.50;;;16.60;99.90;;;16.03;100.00;101239.25;4137763;28;20037;-68
2021/06/26 05:35:25;;;;;;;6.88;4.63;;;16.60;99.90;;;15.91;100.00;101234.53;4137507;28;20019;-68
2021/06/26 05:37:26;;;;;;;8.18;4.57;;;16.60;99.90;;;16.02;100.00;101228.78;4136458;28;20034;-68
2021/06/26 05:39:27;;;;;;;5.65;3.72;;;16.60;99.90;;;15.86;100.00;101226.25;4136302;28;20030;-67
2021/06/26 05:41:28;;;;;;;5.90;4.35;;;16.60;99.90;;;15.92;100.00;101225.50;4136128;28;20077;-68
2021/06/26 05:43:29;;;;;;;7.85;4.22;;;16.60;99.90;;;15.84;100.00;101222.94;4137383;28;20031;-68
2021/06/26 05:45:30;;;;;;;12.02;5.75;;;16.60;99.90;;;15.84;100.00;101217.63;4137056;28;20486;-67
2021/06/26 05:47:31;;;;;;;11.48;4.55;;;16.60;99.90;;;16.05;100.00;101220.44;4137501;28;20077;-68
2021/06/26 05:49:32;;;;;;;5.38;3.72;;;16.60;99.90;;;16.09;100.00;101213.75;4137100;28;20093;-68
2021/06/26 05:51:33;;;;;;;5.07;3.63;;;16.70;99.90;;;16.28;100.00;101221.19;4136298;28;20030;-68
2021/06/26 05:53:34;;;;;;;10.68;4.10;;;16.80;99.90;;;16.30;100.00;101216.53;4137243;28;20034;-68
2021/06/26 05:55:35;;;;;;;6.28;3.88;;;16.90;99.90;;;16.35;100.00;101216.81;4136024;28;20022;-68
2021/06/26 05:57:36;;;;;;;7.60;3.95;;;17.00;99.90;;;16.31;100.00;101204.88;4137127;28;20023;-68
2021/06/26 05:59:37;;;;;;;6.22;3.88;;;17.10;99.90;;;16.43;100.00;101216.72;4136120;28;20058;-68
2021/06/26 06:01:38;;;;;;;6.78;4.40;;;17.20;99.90;;;16.55;100.00;101230.44;4119955;28;20031;-68
2021/06/26 06:03:39;;;;;;;5.60;3.28;;;17.30;99.90;;;16.54;100.00;101226.16;4135642;28;20019;-68
2021/06/26 06:05:40;;;;;;;6.85;3.42;;;17.30;99.90;;;16.48;100.00;101227.69;4135825;28;20034;-68
2021/06/26 06:07:43;;;;;;;4.97;3.58;;;17.20;99.90;;;16.32;100.00;101206.53;4137338;28;20033;-68
2021/06/26 06:09:44;;;;;;;5.28;2.95;;;17.10;99.90;;;16.31;100.00;101212.84;4136057;28;20026;-67
2021/06/26 06:11:45;;;;;;;9.18;3.15;;;17.00;99.90;;;16.36;100.00;101204.34;4136121;28;20031;-68
2021/06/26 06:13:46;;;;;;;4.63;2.88;;;17.00;99.90;;;16.45;100.00;101208.56;4136782;28;20081;-67
2021/06/26 06:15:49;;;;;;;6.57;3.30;;;17.00;99.90;;;16.43;100.00;101215.91;4137268;28;20034;-68
2021/06/26 06:17:50;;;;;;;5.93;4.20;;;17.00;99.90;;;16.42;100.00;101212.44;4135934;28;20605;-68
2021/06/26 06:19:51;;;;;;;5.45;2.85;;;17.00;99.90;;;16.37;100.00;101220.13;4135433;28;20062;-67
2021/06/26 06:21:52;;;;;;;5.32;3.25;;;17.00;99.90;;;16.42;100.00;101215.09;4136821;28;20037;-67
2021/06/26 06:23:53;;;;;;;9.23;3.30;;;17.00;99.90;;;16.46;100.00;101212.88;4136910;28;20034;-68
2021/06/26 06:25:55;;;;;;;4.90;3.20;;;17.00;99.90;;;16.40;100.00;101214.44;4136782;28;20435;-68
2021/06/26 06:27:56;;;;;;;4.18;3.22;;;17.00;99.90;;;16.45;100.00;101220.06;4136774;28;20037;-67
2021/06/26 06:29:57;;;;;;;5.93;3.58;;;17.00;99.90;;;16.46;100.00;101211.03;4136515;28;20104;-67
2021/06/26 06:31:58;;;;;;;5.97;3.58;;;17.00;99.90;;;16.39;100.00;101217.28;4135610;28;20430;-68
2021/06/26 06:33:59;;;;;;;6.35;3.58;;;17.00;99.90;;;16.32;100.00;101217.19;4135105;28;20033;-67
2021/06/26 06:36:03;;;;;;;6.63;3.15;;;17.00;99.90;;;16.26;100.00;101204.59;4136600;28;20030;-67
2021/06/26 06:38:04;;;;;;;6.40;3.67;;;16.90;99.90;;;16.33;100.00;101207.38;4136509;28;20065;-68
2021/06/26 06:40:07;;;;;;;9.75;4.30;;;16.90;99.90;;;16.38;100.00;101211.13;4135473;28;20490;-67
2021/06/26 06:42:09;;;;;;;5.30;3.58;;;16.90;99.90;;;16.26;100.00;101206.44;4136573;28;20189;-67
2021/06/26 06:44:10;;;;;;;9.50;4.47;;;16.90;99.90;;;16.26;100.00;101215.25;4135342;28;20525;-67
2021/06/26 06:46:11;;;;;;;5.07;3.50;;;16.80;99.90;;;16.29;100.00;101212.22;4119023;28;20039;-68
2021/06/26 06:48:11;;;;;;;8.52;3.80;;;16.80;99.90;;;16.39;100.00;101206.63;4136579;28;20030;-67
2021/06/26 06:50:13;;;;;;;5.57;3.67;;;16.90;99.90;;;16.39;100.00;101191.50;4136186;28;20061;-67
2021/06/26 06:52:14;;;;;;;5.50;3.97;;;16.90;99.90;;;16.45;100.00;101198.75;4135296;28;20560;-68
2021/06/26 06:54:14;;;;;;;6.97;4.13;;;17.00;99.90;;;16.51;100.00;101202.50;4136233;28;20061;-68
2021/06/26 06:56:15;;;;;;;4.40;3.60;;;17.10;99.90;;;16.45;100.00;101180.09;4135125;28;20121;-68
2021/06/26 06:58:18;;;;;;;5.78;4.00;;;17.10;99.90;;;16.57;100.00;101194.66;4135764;28;20034;-68
2021/06/26 07:00:19;;;;;;;3.67;2.88;;;17.10;99.90;;;16.57;100.00;101199.97;4135119;28;20033;-68
2021/06/26 07:02:21;;;;;;;5.30;3.13;;;17.10;99.90;;;16.60;100.00;101201.44;4134992;28;20033;-68
2021/06/26 07:04:21;;;;;;;4.53;3.85;;;17.20;99.90;;;16.61;100.00;101195.09;4135990;28;20058;-68
2021/06/26 07:06:22;;;;;;;6.22;2.85;;;17.20;99.90;;;16.60;100.00;101185.47;4136161;28;20089;-68
2021/06/26 07:08:23;;;;;;;3.65;2.88;;;17.20;99.90;;;16.67;100.00;101185.53;4136410;28;20385;-68
2021/06/26 07:10:25;;;;;;;4.90;3.38;;;17.20;99.90;;;16.62;100.00;101185.25;4134905;28;20114;-68
2021/06/26 07:12:26;;;;;;;9.13;3.28;;;17.30;99.90;;;16.59;100.00;101181.13;4151236;28;20072;-67
2021/06/26 07:14:27;;;;;;;6.72;4.07;;;17.20;99.90;;;16.66;100.00;101186.56;4135109;28;20030;-68
2021/06/26 07:16:28;;;;;;;7.90;3.63;;;17.30;99.90;;;16.67;100.00;101177.53;4136091;28;20023;-68
2021/06/26 07:18:29;;;;;;;7.18;3.47;;;17.30;99.90;;;16.70;100.00;101185.16;4135743;28;20063;-68
2021/06/26 07:20:29;;;;;;;3.70;3.10;;;17.30;99.90;;;16.75;100.00;101196.09;4136024;28;20482;-68
2021/06/26 07:22:31;;;;;;;5.05;3.00;;;17.30;99.90;;;16.66;100.00;101191.88;4136056;28;20478;-68
2021/06/26 07:24:32;;;;;;;3.97;3.47;;;17.30;99.90;;;16.74;100.00;101189.94;4134836;28;20401;-68
2021/06/26 07:26:33;;;;;;;4.88;3.10;;;17.40;99.90;;;16.70;100.00;101193.16;4150937;28;20041;-68
2021/06/26 07:28:34;;;;;;;6.47;3.65;;;17.30;99.90;;;16.65;100.00;101179.56;4135995;28;20026;-67
2021/06/26 07:30:35;;;;;;;4.75;3.45;;;17.30;99.90;;;16.81;100.00;101190.03;4151040;28;20081;-68
2021/06/26 07:32:36;;;;;;;5.93;3.72;;;17.40;99.90;;;16.85;100.00;101186.81;4135979;28;20498;-68
2021/06/26 07:34:37;;;;;;;5.32;3.30;;;17.40;99.90;;;16.96;100.00;101190.84;4135404;28;20109;-68
2021/06/26 07:36:38;;;;;;;5.68;3.83;;;17.50;99.90;;;16.88;100.00;101196.25;4136189;28;20037;-68
2021/06/26 07:38:39;;;;;;;5.38;3.17;;;17.50;99.90;;;16.89;100.00;101192.59;4134754;28;20064;-68
2021/06/26 07:40:40;;;;;;;4.20;3.10;;;17.50;99.90;;;16.93;100.00;101204.53;4134609;28;20077;-68
2021/06/26 07:42:41;;;;;;;6.38;3.60;;;17.50;99.90;;;16.83;100.00;101196.84;4135810;28;20026;-68
2021/06/26 07:44:42;;;;;;;5.90;4.18;;;17.50;99.90;;;16.69;100.00;101186.19;4134748;28;20041;-68
2021/06/26 07:46:43;;;;;;;5.50;3.78;;;17.40;99.90;;;16.70;100.00;101190.50;4135819;28;20477;-68
2021/06/26 07:48:46;;;;;;;7.15;4.30;;;17.30;99.90;;;16.81;100.00;101195.38;4134328;28;20026;-68
2021/06/26 07:50:51;;;;;;;7.75;4.10;;;17.40;99.90;;;16.75;100.00;101191.63;4134649;28;20117;-68
2021/06/26 07:52:52;;;;;;;5.22;3.85;;;17.40;99.90;;;16.81;100.00;101190.03;4134456;28;20073;-68
2021/06/26 07:54:54;;;;;;;4.82;3.95;;;17.50;99.90;;;16.69;100.00;101179.03;4135801;28;20034;-68
2021/06/26 07:56:55;;;;;;;5.50;4.10;;;17.50;99.90;;;16.86;100.00;101191.13;4134540;28;20031;-68
2021/06/26 07:58:56;;;;;;;6.63;4.47;;;17.60;99.90;;;17.02;100.00;101196.22;4135842;28;20471;-68
2021/06/26 08:00:58;;;;;;;9.07;3.97;;;17.70;99.90;;;16.97;100.00;101184.47;4135534;28;20032;-68
2021/06/26 08:02:59;;;;;;;7.40;4.40;;;17.80;99.90;;;17.20;100.00;101181.69;4134670;28;20494;-67
2021/06/26 08:05:00;;;;;;;5.35;3.47;;;17.90;99.90;;;17.11;100.00;101175.66;4135456;28;20109;-68
2021/06/26 08:07:00;;;;;;;5.82;3.95;;;18.00;99.90;;;17.18;100.00;101187.19;4134384;28;20061;-68
2021/06/26 08:09:02;;;;;;;6.13;3.63;;;18.00;99.90;;;17.22;100.00;101177.81;4136946;28;20073;-68
2021/06/26 08:11:02;;;;;;;3.67;3.28;;;18.10;99.90;;;17.28;100.00;101189.56;4137646;28;20030;-68
2021/06/26 08:13:04;;;;;;;6.35;3.90;;;18.10;99.90;;;17.37;100.00;101186.59;4137562;28;20030;-68
2021/06/26 08:15:06;;;;;;;5.88;3.42;;;18.10;99.90;;;17.41;100.00;101179.84;4137671;28;20026;-68
2021/06/26 08:17:07;;;;;;;6.50;4.22;;;18.20;99.90;;;17.53;100.00;101185.53;4137556;28;20568;-68
2021/06/26 08:19:08;;;;;;;6.50;3.65;;;18.30;99.90;;;17.50;100.00;101178.72;4137234;28;20026;-67